Time;durP1;ratioP1;P1;durP2;ratioP2;P2;SDS_P1;SDS_P2;PMS_P1;PMS_P2;Temp;Humidity;BMP_temperature;BMP_pressure;BME280_temperature;BME280_humidity;BME280_pressure;Samples;Min_cycle;Max_cycle;Signal;HPM_P1;HPM_P2
2023/07/24 00:03:23;;;;;;;7.68;3.83;;;;;;;21.97;36.24;97185.94;10418975;28;20473;-65
2023/07/24 00:08:44;;;;;;;4.85;3.25;;;;;;;21.90;36.51;97173.06;10418896;28;20487;-65
2023/07/24 00:14:04;;;;;;;9.45;3.58;;;;;;;21.90;36.71;97178.72;10403669;28;20125;-65
2023/07/24 00:19:25;;;;;;;5.18;3.30;;;;;;;21.89;36.37;97176.59;10418895;28;20079;-65
2023/07/24 00:24:46;;;;;;;4.93;3.13;;;;;;;21.85;36.66;97174.41;10418101;28;20073;-65
2023/07/24 00:30:07;;;;;;;7.13;3.45;;;;;;;21.80;36.51;97172.91;10389436;28;20049;-65
2023/07/24 00:35:28;;;;;;;7.20;3.85;;;;;;;21.76;36.54;97155.81;10417534;28;20125;-65
2023/07/24 00:40:50;;;;;;;4.82;3.40;;;;;;;21.69;36.44;97159.97;10417520;28;20117;-65
2023/07/24 00:46:11;;;;;;;4.68;3.40;;;;;;;21.63;37.01;97157.78;10388640;28;20113;-65
2023/07/24 00:51:32;;;;;;;5.95;3.30;;;;;;;21.48;37.06;97153.28;10388616;28;20121;-65
2023/07/24 00:56:53;;;;;;;5.22;3.28;;;;;;;21.32;37.12;97161.53;10374573;28;20135;-65
2023/07/24 01:02:14;;;;;;;5.05;3.25;;;;;;;21.18;37.38;97175.47;10388043;28;20053;-65
2023/07/24 01:07:34;;;;;;;6.13;3.45;;;;;;;21.12;37.58;97176.06;10388034;28;20046;-65
2023/07/24 01:13:06;;;;;;;5.10;3.30;;;;;;;21.08;37.89;97170.34;10401405;28;20099;-65
2023/07/24 01:18:27;;;;;;;6.65;3.50;;;;;;;21.00;37.90;97176.59;10388299;28;20120;-65
2023/07/24 01:24:08;;;;;;;6.35;3.33;;;;;;;20.91;38.07;97171.44;10387568;28;20460;-65
2023/07/24 01:29:28;;;;;;;7.25;3.50;;;;;;;20.77;38.28;97175.47;10386484;28;20116;-65
2023/07/24 01:34:49;;;;;;;6.13;3.33;;;;;;;20.71;38.41;97163.28;10400972;28;20164;-65
2023/07/24 01:40:10;;;;;;;6.03;3.33;;;;;;;20.63;38.53;97157.47;10386793;28;20172;-65
2023/07/24 01:45:31;;;;;;;4.78;3.13;;;;;;;20.57;38.30;97143.91;10400719;28;20091;-64
2023/07/24 01:50:52;;;;;;;5.15;3.45;;;;;;;20.57;39.29;97135.41;10400706;28;20046;-65
2023/07/24 01:56:12;;;;;;;7.15;3.17;;;;;;;20.58;39.12;97145.34;10400536;28;20094;-65
2023/07/24 02:01:33;;;;;;;7.18;3.03;;;;;;;20.55;38.90;97116.22;10400109;28;20140;-64
2023/07/24 02:06:54;;;;;;;5.40;3.08;;;;;;;20.57;39.41;97115.56;10400107;28;20124;-64
2023/07/24 02:12:14;;;;;;;6.50;3.15;;;;;;;20.67;39.21;97104.41;10414970;28;20175;-65
2023/07/24 02:17:35;;;;;;;4.53;2.95;;;;;;;20.77;39.28;97115.19;10399774;28;20042;-64
2023/07/24 02:22:56;;;;;;;5.18;3.35;;;;;;;20.84;39.70;97125.97;10386089;28;20168;-65
2023/07/24 02:28:17;;;;;;;6.78;3.55;;;;;;;20.87;39.60;97152.25;10400031;28;20164;-65
2023/07/24 02:33:38;;;;;;;5.20;3.33;;;;;;;20.80;39.77;97159.22;10399470;28;20131;-64
2023/07/24 02:39:00;;;;;;;6.40;3.63;;;;;;;20.76;39.96;97165.53;10404036;28;20087;-65
2023/07/24 02:44:20;;;;;;;5.15;3.03;;;;;;;20.68;40.00;97142.69;10393932;28;20045;-65
2023/07/24 02:49:41;;;;;;;6.10;3.42;;;;;;;20.64;40.28;97148.28;10421942;28;20249;-65
2023/07/24 02:55:02;;;;;;;6.88;3.40;;;;;;;20.61;40.64;97163.81;10421566;28;20479;-65
2023/07/24 03:00:23;;;;;;;7.28;3.75;;;;;;;20.59;40.84;97175.13;10406730;28;20072;-64
2023/07/24 03:05:43;;;;;;;7.88;3.80;;;;;;;20.55;41.02;97164.41;10406508;28;20065;-65
2023/07/24 03:11:05;;;;;;;6.93;3.63;;;;;;;20.59;41.26;97163.78;10420992;28;20119;-65
2023/07/24 03:16:26;;;;;;;8.63;4.15;;;;;;;20.52;42.40;97159.41;10406044;28;20623;-65
2023/07/24 03:21:47;;;;;;;6.78;4.28;;;;;;;20.43;42.97;97143.63;10405743;28;20459;-64
2023/07/24 03:27:08;;;;;;;6.13;3.85;;;;;;;20.34;44.55;97144.84;10391937;28;20072;-64
2023/07/24 03:32:29;;;;;;;11.43;4.32;;;;;;;19.99;47.27;97146.97;10420234;28;20480;-65
2023/07/24 03:37:49;;;;;;;10.10;4.57;;;;;;;19.71;49.27;97133.66;10405874;28;20052;-65
2023/07/24 03:43:10;;;;;;;7.60;4.57;;;;;;;19.52;50.95;97136.72;10404736;28;20121;-65
2023/07/24 03:48:31;;;;;;;8.70;4.78;;;;;;;19.33;52.73;97099.50;10418881;28;20462;-64
2023/07/24 03:53:51;;;;;;;9.75;4.57;;;;;;;19.30;54.07;97094.44;10404853;28;20444;-64
2023/07/24 03:59:14;;;;;;;7.53;4.65;;;;;;;19.36;55.04;97097.44;10404624;28;20168;-64
2023/07/24 04:04:35;;;;;;;7.55;4.28;;;;;;;19.35;55.97;97084.69;10404329;28;20085;-65
2023/07/24 04:09:55;;;;;;;7.80;4.80;;;;;;;19.28;56.71;97094.41;10419188;28;20509;-64
2023/07/24 04:15:16;;;;;;;7.43;4.68;;;;;;;19.22;57.39;97088.63;10418520;28;20073;-65
2023/07/24 04:20:37;;;;;;;7.63;4.63;;;;;;;19.16;57.91;97081.44;10417958;28;20121;-64
2023/07/24 04:25:58;;;;;;;11.25;4.70;;;;;;;19.10;59.39;97058.66;10418125;28;20076;-65
2023/07/24 04:31:19;;;;;;;8.45;4.47;;;;;;;19.06;59.24;97040.88;10418244;28;20117;-64
2023/07/24 04:36:39;;;;;;;8.90;5.00;;;;;;;19.10;59.55;97019.03;10402830;28;20069;-65
2023/07/24 04:42:00;;;;;;;6.97;4.45;;;;;;;19.25;59.08;97036.34;10417574;28;20068;-64
2023/07/24 04:47:21;;;;;;;9.27;4.53;;;;;;;19.34;59.28;97043.63;10402362;28;20133;-64
2023/07/24 04:52:41;;;;;;;7.15;4.55;;;;;;;19.42;58.99;97038.88;10417189;28;20121;-65
2023/07/24 04:58:02;;;;;;;8.15;4.63;;;;;;;19.51;58.76;97042.59;10401909;28;20116;-64
2023/07/24 05:03:23;;;;;;;9.35;4.70;;;;;;;19.76;58.19;97046.66;10401334;28;20491;-65
2023/07/24 05:08:43;;;;;;;8.43;4.47;;;;;;;20.13;58.14;97036.06;10401629;28;20065;-65
2023/07/24 05:14:04;;;;;;;8.88;4.63;;;;;;;20.50;57.61;97034.63;10401588;28;20125;-64
2023/07/24 05:19:25;;;;;;;6.85;4.47;;;;;;;20.87;56.88;97038.78;10401380;28;20119;-65
2023/07/24 05:24:46;;;;;;;8.18;4.60;;;;;;;21.21;56.14;97038.59;10387203;28;20061;-64
2023/07/24 05:30:07;;;;;;;6.93;4.55;;;;;;;21.67;55.27;97029.31;10415951;28;20129;-65
2023/07/24 05:35:28;;;;;;;10.13;4.97;;;;;;;22.01;54.15;97029.03;10416239;28;20179;-65
2023/07/24 05:40:54;;;;;;;8.23;4.70;;;;;;;22.38;52.82;97026.56;10386873;28;20129;-65
2023/07/24 05:46:15;;;;;;;8.90;4.95;;;;;;;22.66;51.16;97035.38;10415282;28;20556;-65
2023/07/24 05:51:36;;;;;;;9.60;5.38;;;;;;;23.02;50.09;97045.66;10415254;28;20120;-65
2023/07/24 05:56:57;;;;;;;9.80;5.00;;;;;;;23.06;47.88;97043.53;10415094;28;20176;-65
2023/07/24 06:02:18;;;;;;;7.93;5.03;;;;;;;22.74;47.35;97026.19;10414906;28;20128;-65
2023/07/24 06:07:39;;;;;;;7.78;4.90;;;;;;;22.73;47.94;97034.00;10414598;28;20088;-65
2023/07/24 06:12:59;;;;;;;11.13;4.72;;;;;;;22.55;47.68;97031.72;10417457;28;20065;-65
2023/07/24 06:18:20;;;;;;;7.80;4.85;;;;;;;22.51;47.79;97030.97;10423580;28;20168;-65
2023/07/24 06:23:40;;;;;;;7.63;4.93;;;;;;;22.48;47.96;97032.34;10407644;28;20045;-65
2023/07/24 06:29:01;;;;;;;8.18;5.30;;;;;;;22.56;47.83;97044.53;10422658;28;20445;-65
2023/07/24 06:34:22;;;;;;;6.85;4.43;;;;;;;22.72;47.70;97043.25;10407689;28;20065;-64
2023/07/24 06:39:43;;;;;;;7.82;5.35;;;;;;;22.88;47.65;97040.56;10422004;28;20127;-65
2023/07/24 06:45:04;;;;;;;9.27;4.82;;;;;;;22.94;47.56;97034.91;10422068;28;20076;-65
2023/07/24 06:50:28;;;;;;;9.52;5.07;;;;;;;23.47;47.25;97037.41;10421447;28;20121;-65
2023/07/24 06:55:48;;;;;;;9.25;4.95;;;;;;;23.80;46.75;97035.44;10421570;28;20076;-65
2023/07/24 07:01:09;;;;;;;7.63;4.85;;;;;;;23.82;46.22;97015.50;10420993;28;20057;-65
2023/07/24 07:06:30;;;;;;;6.53;4.85;;;;;;;23.76;45.88;96987.00;10421039;28;20113;-65
2023/07/24 07:11:51;;;;;;;6.78;5.00;;;;;;;23.84;45.59;97007.00;10420905;28;20393;-65
2023/07/24 07:17:11;;;;;;;11.07;5.95;;;;;;;23.63;45.43;97011.88;10405927;28;20514;-65
2023/07/24 07:22:32;;;;;;;11.55;6.05;;;;;;;23.97;46.00;97008.44;10405426;28;20507;-65
2023/07/24 07:27:53;;;;;;;9.23;6.18;;;;;;;26.19;43.17;97017.53;10405102;28;20045;-65
2023/07/24 07:33:14;;;;;;;10.23;5.68;;;;;;;28.36;38.50;97019.06;10420342;28;20491;-65
2023/07/24 07:38:35;;;;;;;7.63;5.00;;;;;;;29.08;36.04;97022.28;10405019;28;20038;-67
2023/07/24 07:43:57;;;;;;;8.63;5.50;;;;;;;29.86;33.89;97030.91;10420298;28;20399;-68
2023/07/24 07:49:18;;;;;;;7.60;5.20;;;;;;;29.69;34.00;97035.56;10419714;28;20045;-67
2023/07/24 07:54:40;;;;;;;8.00;5.20;;;;;;;28.57;34.28;97042.44;10419957;28;20132;-67
2023/07/24 08:00:01;;;;;;;8.35;5.63;;;;;;;27.29;35.94;97041.78;10404851;28;20051;-68
2023/07/24 08:05:24;;;;;;;7.68;5.32;;;;;;;27.15;36.58;97036.91;10404862;28;20056;-67
2023/07/24 08:10:45;;;;;;;6.82;5.00;;;;;;;27.82;36.67;97041.28;10404286;28;20054;-67
2023/07/24 08:16:17;;;;;;;7.78;4.95;;;;;;;29.38;35.34;97006.66;10418370;28;20092;-67
2023/07/24 08:21:38;;;;;;;7.13;5.00;;;;;;;30.81;33.94;96983.50;10418214;28;20479;-67
2023/07/24 08:27:00;;;;;;;6.20;4.90;;;;;;;30.23;32.00;96983.41;10418269;28;20041;-67
2023/07/24 08:32:20;;;;;;;7.05;5.35;;;;;;;29.43;32.95;96969.91;10417869;28;20487;-67
2023/07/24 08:37:44;;;;;;;6.65;4.72;;;;;;;31.02;31.58;96952.72;10417645;28;20084;-68
2023/07/24 08:43:05;;;;;;;8.73;5.88;;;;;;;31.72;30.17;96945.78;10388868;28;20095;-67
2023/07/24 08:48:35;;;;;;;10.97;5.67;;;;;;;31.58;29.43;96946.91;10417217;28;20053;-67
2023/07/24 08:53:58;;;;;;;;;;;;;;;31.81;28.83;96944.09;10402571;28;20049;-68
2023/07/24 08:59:18;;;;;;;7.20;5.07;;;;;;;32.03;29.09;96937.63;10401979;28;19925;-68
2023/07/24 09:04:39;;;;;;;8.38;5.40;;;;;;;32.08;28.79;96938.22;10416534;28;20456;-67
2023/07/24 09:10:00;;;;;;;7.40;5.40;;;;;;;32.95;28.08;96932.56;10416811;28;20052;-68
2023/07/24 09:15:21;;;;;;;8.43;5.57;;;;;;;34.17;25.73;96927.44;10401566;28;20072;-68
2023/07/24 09:20:43;;;;;;;7.70;5.65;;;;;;;34.62;24.47;96931.44;10401053;28;20053;-68
2023/07/24 09:26:07;;;;;;;7.53;5.35;;;;;;;33.94;25.44;96923.97;10387548;28;20047;-68
2023/07/24 09:31:38;;;;;;;10.82;5.95;;;;;;;33.18;25.80;96934.66;10415849;28;20526;-68
2023/07/24 09:36:59;;;;;;;8.25;6.05;;;;;;;32.73;26.46;96934.00;10400947;28;20041;-68
2023/07/24 09:42:40;;;;;;;;;;;;;;;32.22;27.21;96931.31;10415776;28;20448;-68
2023/07/24 09:48:22;;;;;;;10.02;5.75;;;;;;;31.40;27.96;96927.22;10399956;28;19958;-67
2023/07/24 09:54:22;;;;;;;7.53;5.43;;;;;;;30.53;29.43;96919.38;10387436;28;20057;-67
2023/07/24 09:59:43;;;;;;;8.73;5.68;;;;;;;30.36;29.97;96906.81;10399183;28;20111;-67
2023/07/24 10:05:04;;;;;;;8.73;5.90;;;;;;;30.15;29.98;96907.31;10414653;28;20081;-67
2023/07/24 10:10:27;;;;;;;9.55;5.95;;;;;;;30.10;30.43;96913.91;10387031;28;20051;-67
2023/07/24 10:15:48;;;;;;;10.20;6.18;;;;;;;29.70;30.85;96910.44;10400317;28;20045;-67
2023/07/24 10:21:09;;;;;;;10.27;5.82;;;;;;;29.57;30.90;96910.00;10372676;28;20057;-67
2023/07/24 10:26:31;;;;;;;8.10;5.60;;;;;;;29.64;31.10;96902.66;10399805;28;20045;-67
2023/07/24 10:31:53;;;;;;;9.97;6.03;;;;;;;29.95;30.96;96907.03;10386152;28;20049;-67
2023/07/24 10:37:15;;;;;;;7.72;5.68;;;;;;;30.00;30.71;96899.72;10414183;28;20277;-67
2023/07/24 10:42:36;;;;;;;8.77;5.18;;;;;;;30.16;30.79;96888.56;10399502;28;20095;-68
2023/07/24 10:47:58;;;;;;;9.48;5.88;;;;;;;30.29;30.23;96888.97;10413892;28;20466;-67
2023/07/24 10:53:20;;;;;;;11.27;5.97;;;;;;;30.52;29.60;96874.75;10414147;28;20083;-68
2023/07/24 10:58:41;;;;;;;7.05;5.50;;;;;;;30.31;29.84;96868.81;10401375;28;20053;-68
2023/07/24 11:04:02;;;;;;;7.43;5.85;;;;;;;30.38;29.39;96857.84;10407117;28;20076;-68
2023/07/24 11:09:34;;;;;;;8.38;5.43;;;;;;;30.19;29.28;96840.31;10406579;28;20099;-68
2023/07/24 11:14:55;;;;;;;9.07;5.10;;;;;;;30.01;29.39;96860.84;10421219;28;20102;-67
2023/07/24 11:20:17;;;;;;;7.63;5.35;;;;;;;29.73;29.87;96845.00;10420639;28;20053;-67
2023/07/24 11:25:38;;;;;;;9.85;5.70;;;;;;;29.56;30.49;96833.84;10406120;28;20160;-67
2023/07/24 11:31:02;;;;;;;11.40;5.78;;;;;;;29.37;31.68;96829.91;10405567;28;20045;-68
2023/07/24 11:36:24;;;;;;;10.68;5.70;;;;;;;29.26;31.77;96846.66;10405450;28;20050;-67
2023/07/24 11:41:45;;;;;;;8.20;5.80;;;;;;;29.02;32.23;96816.25;10391647;28;20408;-67
2023/07/24 11:47:06;;;;;;;10.50;5.93;;;;;;;29.11;32.47;96808.19;10405082;28;20042;-67
2023/07/24 11:52:38;;;;;;;8.93;5.85;;;;;;;29.01;32.49;96802.66;10419390;28;20053;-67
2023/07/24 11:58:00;;;;;;;8.65;6.20;;;;;;;28.64;33.11;96777.50;10391139;28;20061;-67
2023/07/24 12:03:22;;;;;;;;;;;;;;;28.34;33.76;96769.47;10419657;28;20058;-67
2023/07/24 12:08:44;;;;;;;8.48;6.05;;;;;;;28.04;34.47;96754.19;10418935;28;19921;-67
2023/07/24 12:14:04;;;;;;;11.73;6.47;;;;;;;28.02;34.73;96757.09;10389937;28;20076;-67
2023/07/24 12:19:25;;;;;;;10.88;6.18;;;;;;;28.03;34.94;96754.91;10404239;28;20049;-67
2023/07/24 12:24:46;;;;;;;13.87;6.07;;;;;;;28.65;34.52;96735.13;10418564;28;20176;-68
2023/07/24 12:30:08;;;;;;;10.35;6.38;;;;;;;28.88;33.93;96707.41;10418094;28;20041;-67
2023/07/24 12:35:29;;;;;;;10.25;7.05;;;;;;;28.74;33.69;96691.16;10417919;28;20049;-67
2023/07/24 12:40:50;;;;;;;11.05;7.50;;;;;;;28.48;33.78;96683.13;10417610;28;20045;-67
2023/07/24 12:46:11;;;;;;;11.35;7.05;;;;;;;28.57;33.87;96678.63;10417452;28;20076;-67
2023/07/24 12:51:32;;;;;;;9.27;6.82;;;;;;;29.33;33.72;96684.13;10417078;28;20054;-67
2023/07/24 12:56:53;;;;;;;10.13;6.97;;;;;;;30.05;32.32;96676.66;10402705;28;20052;-67
2023/07/24 13:02:15;;;;;;;16.27;6.70;;;;;;;30.61;31.40;96676.59;10416375;28;20053;-67
2023/07/24 13:07:36;;;;;;;12.00;7.30;;;;;;;31.16;30.49;96669.91;10401847;28;20618;-67
2023/07/24 13:12:57;;;;;;;11.77;7.30;;;;;;;31.67;29.79;96673.38;10416324;28;20049;-68
2023/07/24 13:18:19;;;;;;;9.02;7.00;;;;;;;31.49;29.03;96681.13;10401917;28;20037;-67
2023/07/24 13:23:49;;;;;;;10.73;6.97;;;;;;;30.94;29.15;96685.69;10415002;28;20530;-67
2023/07/24 13:29:10;;;;;;;9.88;6.68;;;;;;;30.72;29.34;96674.84;10401322;28;20037;-67
2023/07/24 13:34:31;;;;;;;9.85;6.93;;;;;;;30.77;29.46;96661.72;10400997;28;20479;-67
2023/07/24 13:39:52;;;;;;;11.17;6.50;;;;;;;30.62;29.40;96654.94;10400806;28;20046;-66
2023/07/24 13:45:13;;;;;;;9.10;6.27;;;;;;;30.57;29.15;96645.00;10415273;28;20048;-67
2023/07/24 13:50:34;;;;;;;8.47;6.20;;;;;;;30.40;29.21;96667.78;10415274;28;20061;-67
2023/07/24 13:55:55;;;;;;;8.00;5.63;;;;;;;29.99;29.68;96668.16;10415343;28;20420;-67
2023/07/24 14:01:16;;;;;;;8.43;5.70;;;;;;;29.30;30.42;96676.31;10386414;28;20045;-67
2023/07/24 14:06:37;;;;;;;9.45;6.22;;;;;;;28.63;31.45;96678.47;10415081;28;20053;-67
2023/07/24 14:11:58;;;;;;;10.27;5.97;;;;;;;28.06;32.44;96699.63;10400094;28;20102;-67
2023/07/24 14:17:19;;;;;;;8.67;5.30;;;;;;;27.58;33.76;96704.72;10400334;28;20041;-66
2023/07/24 14:22:40;;;;;;;7.40;4.88;;;;;;;27.01;35.08;96702.69;10399696;28;20076;-66
2023/07/24 14:28:01;;;;;;;7.85;5.07;;;;;;;26.71;36.81;96697.38;10400005;28;20077;-67
2023/07/24 14:33:22;;;;;;;7.68;4.82;;;;;;;26.63;37.86;96709.63;10401576;28;20124;-67
2023/07/24 14:38:43;;;;;;;9.57;6.15;;;;;;;26.49;39.58;96701.22;10422341;28;20470;-66
2023/07/24 14:44:03;;;;;;;9.38;6.05;;;;;;;26.26;40.67;96709.31;10422170;28;20048;-67
2023/07/24 14:49:24;;;;;;;8.30;5.10;;;;;;;26.05;42.42;96716.66;10422375;28;20041;-66
2023/07/24 14:54:45;;;;;;;8.63;4.78;;;;;;;25.70;44.27;96702.69;10421915;28;20180;-67
2023/07/24 15:00:08;;;;;;;8.20;5.03;;;;;;;25.62;44.55;96694.88;10406729;28;20517;-67
2023/07/24 15:05:29;;;;;;;6.88;4.95;;;;;;;25.89;44.51;96695.38;10421548;28;20129;-66
2023/07/24 15:10:50;;;;;;;9.88;5.50;;;;;;;26.04;44.79;96675.94;10406720;28;20490;-67
2023/07/24 15:16:11;;;;;;;9.02;5.00;;;;;;;26.11;44.66;96668.72;10406096;28;20081;-67
2023/07/24 15:21:31;;;;;;;6.28;4.13;;;;;;;26.18;43.85;96675.09;10406184;28;20121;-66
2023/07/24 15:26:52;;;;;;;7.20;4.88;;;;;;;26.06;43.96;96649.50;10420581;28;20053;-66
2023/07/24 15:32:13;;;;;;;6.50;4.28;;;;;;;25.89;44.00;96649.66;10420861;28;20491;-66
2023/07/24 15:37:34;;;;;;;5.88;3.00;;;;;;;25.51;42.99;96641.41;10405367;28;20054;-66
2023/07/24 15:42:55;;;;;;;6.10;2.90;;;;;;;25.66;42.90;96663.41;10405130;28;20582;-66
2023/07/24 15:48:16;;;;;;;6.85;3.45;;;;;;;25.51;42.94;96642.13;10404013;28;20128;-67
2023/07/24 15:53:45;;;;;;;6.60;3.17;;;;;;;25.32;43.28;96649.44;10404599;28;20060;-67
2023/07/24 15:59:06;;;;;;;4.68;3.08;;;;;;;25.40;43.77;96644.34;10404823;28;20111;-66
2023/07/24 16:04:27;;;;;;;6.72;3.47;;;;;;;25.86;43.66;96638.94;10390064;28;20061;-66
2023/07/24 16:09:48;;;;;;;4.32;2.67;;;;;;;25.93;42.42;96612.44;10390716;28;20045;-66
2023/07/24 16:15:09;;;;;;;4.13;3.25;;;;;;;26.18;41.45;96595.72;10403900;28;20479;-66
2023/07/24 16:20:30;;;;;;;7.28;3.10;;;;;;;26.10;41.08;96575.78;10403813;28;20042;-66
2023/07/24 16:25:52;;;;;;;4.57;3.40;;;;;;;26.09;40.38;96585.13;10417991;28;20069;-66
2023/07/24 16:31:13;;;;;;;4.75;3.05;;;;;;;26.16;40.05;96590.03;10417996;28;20056;-67
2023/07/24 16:36:36;;;;;;;4.97;3.55;;;;;;;25.95;39.19;96577.41;10417868;28;20514;-67
2023/07/24 16:41:56;;;;;;;8.80;3.67;;;;;;;25.70;39.57;96574.13;10402651;28;20068;-66
2023/07/24 16:47:17;;;;;;;6.28;3.03;;;;;;;25.48;39.26;96568.59;10402813;28;20503;-66
2023/07/24 16:52:38;;;;;;;5.78;3.47;;;;;;;25.22;39.54;96573.13;10388503;28;20057;-66
2023/07/24 16:57:59;;;;;;;6.22;3.30;;;;;;;25.03;39.95;96566.84;10402104;28;20041;-66
2023/07/24 17:03:19;;;;;;;5.88;3.50;;;;;;;24.81;40.19;96561.28;10401568;28;20077;-66
2023/07/24 17:08:40;;;;;;;6.13;3.53;;;;;;;24.53;41.04;96559.34;10416589;28;20049;-66
2023/07/24 17:14:01;;;;;;;5.60;3.40;;;;;;;24.47;41.18;96545.09;10416554;28;20061;-67
2023/07/24 17:19:22;;;;;;;6.90;3.33;;;;;;;24.44;41.43;96563.66;10401203;28;20084;-66
2023/07/24 17:24:43;;;;;;;4.57;3.08;;;;;;;24.23;41.75;96563.75;10401108;28;20121;-66
2023/07/24 17:30:05;;;;;;;6.60;3.30;;;;;;;24.05;42.15;96555.28;10416469;28;20087;-66
2023/07/24 17:35:25;;;;;;;6.03;2.90;;;;;;;23.92;42.74;96562.44;10416280;28;20159;-66
2023/07/24 17:40:46;;;;;;;6.43;2.92;;;;;;;23.86;42.67;96573.88;10387073;28;20399;-66
2023/07/24 17:46:07;;;;;;;3.97;3.00;;;;;;;23.79;42.95;96558.94;10415522;28;20176;-66
2023/07/24 17:51:28;;;;;;;4.95;2.80;;;;;;;23.80;43.17;96557.50;10415479;28;20065;-67
2023/07/24 17:56:50;;;;;;;6.80;2.75;;;;;;;23.75;43.04;96544.00;10415390;28;20060;-66
2023/07/24 18:02:10;;;;;;;5.22;3.03;;;;;;;23.56;43.10;96546.16;10414912;28;20128;-66
2023/07/24 18:07:32;;;;;;;4.18;2.63;;;;;;;23.39;43.91;96528.41;10401193;28;20045;-66
2023/07/24 18:12:53;;;;;;;4.65;2.70;;;;;;;23.30;44.47;96532.69;10408747;28;20470;-66
2023/07/24 18:18:14;;;;;;;3.95;2.60;;;;;;;23.24;44.81;96521.28;10408909;28;20091;-67
2023/07/24 18:23:35;;;;;;;4.38;2.67;;;;;;;23.14;45.73;96530.56;10394475;28;20128;-64
2023/07/24 18:28:56;;;;;;;5.32;3.38;;;;;;;23.05;45.96;96512.78;10423010;28;20518;-64
2023/07/24 18:34:20;;;;;;;3.55;2.50;;;;;;;23.01;46.11;96512.78;10422630;28;20084;-65
2023/07/24 18:39:41;;;;;;;5.28;3.30;;;;;;;22.95;46.55;96507.09;10422776;28;20138;-65
2023/07/24 18:45:01;;;;;;;5.18;3.00;;;;;;;22.88;46.99;96519.22;10421998;28;20041;-64
2023/07/24 18:50:22;;;;;;;4.90;3.30;;;;;;;22.77;47.29;96518.44;10422044;28;20124;-64
2023/07/24 18:55:43;;;;;;;5.32;2.90;;;;;;;22.67;47.93;96536.22;10421770;28;20465;-64
2023/07/24 19:01:03;;;;;;;5.10;3.00;;;;;;;22.61;48.21;96541.22;10406608;28;20124;-64
2023/07/24 19:06:25;;;;;;;5.95;3.42;;;;;;;22.52;48.53;96538.34;10406496;28;20149;-66
2023/07/24 19:11:46;;;;;;;4.40;2.95;;;;;;;22.41;48.68;96539.75;10406400;28;20080;-64
2023/07/24 19:17:06;;;;;;;6.40;2.90;;;;;;;22.36;49.23;96546.84;10406703;28;20061;-66
2023/07/24 19:22:28;;;;;;;4.32;2.97;;;;;;;22.30;49.79;96546.84;10390814;28;20191;-66
2023/07/24 19:27:49;;;;;;;6.43;3.70;;;;;;;22.23;50.26;96543.25;10420625;28;20060;-66
2023/07/24 19:33:09;;;;;;;6.75;3.50;;;;;;;22.21;50.47;96573.81;10405545;28;20080;-66
2023/07/24 19:38:30;;;;;;;5.88;3.20;;;;;;;22.16;51.28;96578.03;10420292;28;20076;-66
2023/07/24 19:43:51;;;;;;;6.35;3.50;;;;;;;22.07;51.38;96587.94;10405801;28;20159;-66
2023/07/24 19:49:12;;;;;;;6.55;3.40;;;;;;;22.05;51.66;96599.28;10404924;28;20180;-66
2023/07/24 19:54:32;;;;;;;4.72;3.10;;;;;;;21.98;52.07;96599.25;10391139;28;20104;-66
2023/07/24 19:59:53;;;;;;;5.05;3.15;;;;;;;21.94;52.61;96604.22;10405156;28;20061;-66
2023/07/24 20:05:14;;;;;;;6.15;3.30;;;;;;;21.86;52.95;96593.50;10419104;28;20080;-66
2023/07/24 20:10:34;;;;;;;6.13;3.15;;;;;;;21.77;53.96;96592.06;10390998;28;20464;-66
2023/07/24 20:15:55;;;;;;;5.10;3.10;;;;;;;21.62;54.09;96607.59;10418798;28;20079;-64
2023/07/24 20:21:16;;;;;;;4.63;3.03;;;;;;;21.59;54.44;96600.47;10419103;28;20041;-64
2023/07/24 20:26:39;;;;;;;4.47;2.90;;;;;;;21.54;54.80;96607.53;10403886;28;20555;-66
2023/07/24 20:32:01;;;;;;;5.05;3.33;;;;;;;21.49;54.73;96598.28;10403260;28;20048;-66
2023/07/24 20:37:22;;;;;;;4.75;2.97;;;;;;;21.37;55.43;96601.03;10417925;28;20050;-66
2023/07/24 20:42:43;;;;;;;5.18;3.03;;;;;;;21.25;55.79;96607.31;10417869;28;20510;-66
2023/07/24 20:48:04;;;;;;;4.72;2.95;;;;;;;21.20;56.24;96620.03;10417439;28;20041;-66
2023/07/24 20:53:26;;;;;;;4.70;3.17;;;;;;;21.13;56.41;96629.88;10417385;28;20476;-64
2023/07/24 20:58:48;;;;;;;6.03;3.20;;;;;;;21.06;57.30;96623.47;10402869;28;20556;-63
2023/07/24 21:04:09;;;;;;;4.30;2.80;;;;;;;20.97;57.11;96638.28;10417066;28;20175;-63
2023/07/24 21:09:30;;;;;;;4.75;2.83;;;;;;;20.92;57.45;96637.50;10416819;28;20077;-64
2023/07/24 21:14:51;;;;;;;5.80;3.28;;;;;;;20.86;58.22;96632.50;10416907;28;20125;-64
2023/07/24 21:20:12;;;;;;;5.57;2.72;;;;;;;20.76;58.13;96646.59;10416467;28;20121;-64
2023/07/24 21:25:32;;;;;;;4.97;2.70;;;;;;;20.75;58.91;96645.16;10415976;28;20121;-63
2023/07/24 21:30:53;;;;;;;5.10;2.72;;;;;;;20.69;58.78;96652.88;10387537;28;20117;-63
2023/07/24 21:36:14;;;;;;;3.90;2.70;;;;;;;20.65;58.77;96645.03;10415711;28;20494;-64
2023/07/24 21:41:34;;;;;;;4.28;2.50;;;;;;;20.62;58.92;96646.44;10400956;28;20065;-64
2023/07/24 21:46:56;;;;;;;5.57;3.00;;;;;;;20.60;59.18;96657.75;10415469;28;20124;-64
2023/07/24 21:52:17;;;;;;;4.40;2.55;;;;;;;20.52;59.24;96666.16;10415438;28;20164;-64
2023/07/24 21:57:37;;;;;;;5.60;2.67;;;;;;;20.45;59.96;96661.81;10415454;28;20129;-64
2023/07/24 22:02:58;;;;;;;4.93;2.30;;;;;;;20.42;60.50;96668.84;10415459;28;20487;-64
2023/07/24 22:08:19;;;;;;;4.43;2.50;;;;;;;20.39;60.18;96653.94;10415132;28;20125;-63
2023/07/24 22:13:40;;;;;;;3.83;2.53;;;;;;;20.31;60.79;96659.50;10414776;28;20124;-63
2023/07/24 22:19:01;;;;;;;4.53;2.70;;;;;;;20.26;60.72;96664.41;10372784;28;20499;-64
2023/07/24 22:24:21;;;;;;;3.60;2.30;;;;;;;20.24;61.18;96689.88;10400190;28;20137;-64
2023/07/24 22:29:42;;;;;;;5.25;2.58;;;;;;;20.19;61.68;96687.69;10415092;28;20506;-64
2023/07/24 22:35:03;;;;;;;5.32;3.10;;;;;;;20.18;61.67;96678.50;10399969;28;20559;-64
2023/07/24 22:40:27;;;;;;;4.97;2.53;;;;;;;20.08;62.10;96678.34;10399510;28;20124;-66
2023/07/24 22:45:48;;;;;;;6.22;2.30;;;;;;;20.04;62.38;96678.28;10400207;28;20061;-66
2023/07/24 22:51:09;;;;;;;3.70;2.13;;;;;;;19.99;62.31;96657.00;10399330;28;20172;-66
2023/07/24 22:56:30;;;;;;;3.45;2.40;;;;;;;19.94;62.34;96667.53;10404528;28;20126;-64
2023/07/24 23:01:52;;;;;;;5.13;2.53;;;;;;;19.85;63.04;96668.81;10421611;28;20499;-66
2023/07/24 23:07:13;;;;;;;3.58;2.30;;;;;;;19.80;63.45;96675.13;10421941;28;20120;-66
2023/07/24 23:12:34;;;;;;;3.22;2.20;;;;;;;19.77;63.23;96685.69;10421481;28;20099;-66
2023/07/24 23:17:55;;;;;;;3.80;2.22;;;;;;;19.72;63.58;96692.69;10421026;28;20069;-66
2023/07/24 23:23:16;;;;;;;4.05;2.38;;;;;;;19.65;64.02;96700.38;10421057;28;20069;-66
2023/07/24 23:28:36;;;;;;;3.83;2.08;;;;;;;19.60;64.02;96701.72;10420637;28;20069;-66
2023/07/24 23:33:57;;;;;;;4.75;1.98;;;;;;;19.57;64.42;96700.25;10391924;28;20118;-64
2023/07/24 23:39:18;;;;;;;3.65;2.42;;;;;;;19.55;64.46;96694.53;10420684;28;20076;-66
2023/07/24 23:44:39;;;;;;;3.60;2.20;;;;;;;19.52;64.68;96695.19;10420583;28;20376;-66
2023/07/24 23:50:00;;;;;;;4.72;2.35;;;;;;;19.48;64.79;96695.84;10405209;28;20551;-66
2023/07/24 23:55:20;;;;;;;4.03;2.25;;;;;;;19.46;64.45;96701.47;10419825;28;20080;-66
